createdAt,value
2019-05-22T00:01:15.433Z,48.77
2019-05-22T00:04:03.357Z,49.40
2019-05-22T00:06:41.973Z,51.20
2019-05-22T00:09:14.482Z,45.93
2019-05-22T00:11:45.971Z,55.13
2019-05-22T00:14:17.240Z,45.80
2019-05-22T00:16:47.979Z,49.50
2019-05-22T00:19:18.700Z,45.93
2019-05-22T00:21:51.361Z,51.87
2019-05-22T00:24:22.898Z,53.00
2019-05-22T00:26:54.093Z,50.87
2019-05-22T00:29:24.350Z,55.20
2019-05-22T00:31:54.708Z,54.53
2019-05-22T00:34:25.631Z,53.07
2019-05-22T00:36:55.494Z,53.13
2019-05-22T00:39:27.255Z,54.43
2019-05-22T00:41:57.471Z,52.27
2019-05-22T00:44:28.398Z,48.90
2019-05-22T00:47:00.553Z,45.43
2019-05-22T00:49:30.700Z,54.60
2019-05-22T00:52:19.910Z,55.30
2019-05-22T00:54:51.934Z,55.83
2019-05-22T00:57:31.776Z,60.33
2019-05-22T01:00:08.861Z,54.83
2019-05-22T01:02:39.794Z,56.17
2019-05-22T02:29:32.749Z,74.47
2019-05-22T02:32:02.089Z,62.97
2019-05-22T02:34:32.134Z,70.27
2019-05-22T02:37:01.863Z,80.17
2019-05-22T02:39:33.208Z,72.57
2019-05-22T02:42:12.131Z,66.57
2019-05-22T02:44:42.671Z,73.37
2019-05-22T02:47:20.138Z,69.10
2019-05-22T02:49:45.665Z,74.63
2019-05-22T02:52:16.674Z,60.43
2019-05-22T02:54:47.280Z,70.63
2019-05-22T02:57:17.089Z,64.67
2019-05-22T02:59:47.404Z,67.90
2019-05-22T03:02:18.037Z,63.00
2019-05-22T03:05:02.104Z,66.60
2019-05-22T03:07:31.912Z,65.03
2019-05-22T03:10:03.477Z,60.60
2019-05-22T03:12:36.306Z,62.53
2019-05-22T03:15:13.049Z,62.00
2019-05-22T03:17:44.929Z,60.23
2019-05-22T03:20:19.432Z,68.10
2019-05-22T03:23:09.812Z,65.50
2019-05-22T03:25:40.568Z,62.63
2019-05-22T03:28:10.995Z,64.80
2019-05-22T03:30:44.510Z,65.83
2019-05-22T03:33:14.582Z,63.00
2019-05-22T03:35:51.491Z,67.90
2019-05-22T03:38:21.320Z,72.40
2019-05-22T03:40:52.975Z,74.40
2019-05-22T03:43:30.285Z,72.30
2019-05-22T03:46:04.992Z,64.47
2019-05-22T03:48:38.725Z,66.97
2019-05-22T03:51:12.605Z,71.87
2019-05-22T03:53:44.112Z,72.63
2019-05-22T03:56:15.142Z,62.73
2019-05-22T03:58:46.157Z,66.83
2019-05-22T04:01:18.004Z,67.60
2019-05-22T04:03:48.744Z,67.00
2019-05-22T04:06:19.912Z,64.27
2019-05-22T04:08:51.771Z,58.77
2019-05-22T04:11:25.503Z,66.53
2019-05-22T04:13:55.868Z,62.93
2019-05-22T04:16:26.828Z,60.53
2019-05-22T04:18:57.931Z,67.83
2019-05-22T04:21:27.359Z,62.63
2019-05-22T04:23:57.499Z,59.30
2019-05-22T04:26:26.803Z,70.93
2019-05-22T04:28:57.155Z,65.20
2019-05-22T04:31:50.569Z,61.10
2019-05-22T04:34:21.022Z,59.23
2019-05-22T04:36:51.446Z,64.10
2019-05-22T04:39:24.113Z,70.13
2019-05-22T04:41:54.972Z,58.57
2019-05-22T04:44:25.201Z,62.97
2019-05-22T04:46:55.475Z,62.77
2019-05-22T04:49:25.621Z,65.57
2019-05-22T04:51:55.411Z,59.63
2019-05-22T04:54:25.540Z,52.83
2019-05-22T04:56:55.453Z,55.70
2019-05-22T04:59:25.273Z,58.93
2019-05-22T05:01:55.276Z,54.50
2019-05-22T05:04:24.891Z,58.97
2019-05-22T05:06:54.169Z,59.30
2019-05-22T05:09:23.723Z,51.47
2019-05-22T05:11:53.446Z,54.70
2019-05-22T05:14:22.963Z,52.10
2019-05-22T05:16:52.590Z,51.60
2019-05-22T05:19:22.011Z,48.27
2019-05-22T05:21:51.886Z,50.03
2019-05-22T05:24:21.235Z,49.43
2019-05-22T05:26:50.572Z,51.60
2019-05-22T05:29:28.546Z,47.17
2019-05-22T05:31:59.910Z,45.67
2019-05-22T05:34:45.374Z,39.07
2019-05-22T05:37:15.723Z,46.97
2019-05-22T05:39:52.883Z,37.53
2019-05-22T05:42:22.233Z,41.30
2019-05-22T05:44:51.521Z,40.60
2019-05-22T05:47:20.808Z,41.10
2019-05-22T05:49:50.999Z,40.60
2019-05-22T05:52:20.253Z,41.77
2019-05-22T05:54:49.537Z,34.10
2019-05-22T05:57:38.712Z,36.70
2019-05-22T06:00:14.321Z,34.30
2019-05-22T06:02:56.155Z,40.63
2019-05-22T06:05:14.933Z,40.23
2019-05-22T06:07:44.212Z,39.33
2019-05-22T06:10:30.256Z,34.53
2019-05-22T06:13:00.494Z,35.63
2019-05-22T06:15:47.967Z,37.30
2019-05-22T06:18:35.526Z,34.70
2019-05-22T06:21:07.188Z,31.50
2019-05-22T06:23:44.940Z,32.73
2019-05-22T06:26:28.516Z,34.60
2019-05-22T06:28:58.411Z,35.10
2019-05-22T06:32:04.110Z,31.83
2019-05-22T06:34:34.112Z,29.83
2019-05-22T06:37:12.442Z,29.20
2019-05-22T06:39:41.998Z,32.30
2019-05-22T06:42:12.177Z,32.07
2019-05-22T06:44:43.267Z,31.33
2019-05-22T06:47:15.861Z,27.47
2019-05-22T06:49:46.736Z,28.23
2019-05-22T06:52:16.364Z,30.90
2019-05-22T06:54:46.011Z,27.77
2019-05-22T06:57:17.103Z,32.47
2019-05-22T06:59:47.635Z,27.20
2019-05-22T07:02:17.719Z,32.17
2019-05-22T07:04:48.243Z,25.97
2019-05-22T07:07:18.372Z,32.37
2019-05-22T07:09:48.398Z,31.50
2019-05-22T07:12:20.517Z,29.43
2019-05-22T07:15:11.419Z,31.13
2019-05-22T07:17:41.929Z,29.43
2019-05-22T07:20:13.262Z,33.07
2019-05-22T07:22:43.439Z,30.63
2019-05-22T07:25:15.238Z,28.80
2019-05-22T07:27:45.028Z,26.00
2019-05-22T07:30:15.185Z,27.20
2019-05-22T07:32:44.635Z,32.83
2019-05-22T07:35:15.924Z,26.80
2019-05-22T07:37:47.801Z,26.97
2019-05-22T07:40:18.891Z,27.47
2019-05-22T07:42:50.633Z,26.17
2019-05-22T07:45:22.923Z,28.10
2019-05-22T07:47:53.954Z,33.83
2019-05-22T07:50:24.455Z,25.37
2019-05-22T07:52:53.991Z,29.30
2019-05-22T07:55:24.184Z,25.40
2019-05-22T07:58:01.120Z,24.20
2019-05-22T08:00:31.353Z,27.23
2019-05-22T08:03:00.909Z,25.93
2019-05-22T08:05:34.135Z,26.20
2019-05-22T08:08:05.439Z,28.50
2019-05-22T08:10:35.210Z,24.70
2019-05-22T08:13:04.941Z,23.90
2019-05-22T08:15:34.439Z,23.60
2019-05-22T08:18:03.773Z,23.20
2019-05-22T08:20:34.099Z,22.10
2019-05-22T08:23:03.533Z,23.60
2019-05-22T08:25:33.717Z,22.33
2019-05-22T08:28:03.408Z,22.07
2019-05-22T08:30:33.179Z,23.47
2019-05-22T08:33:08.259Z,17.87
2019-05-22T08:35:37.706Z,18.67
2019-05-22T08:38:09.897Z,20.50
2019-05-22T08:41:00.340Z,20.53
2019-05-22T08:43:32.269Z,18.33
2019-05-22T08:46:03.181Z,17.20
2019-05-22T08:48:34.583Z,19.67
2019-05-22T08:51:04.681Z,20.00
2019-05-22T08:53:46.853Z,17.50
2019-05-22T08:56:07.449Z,19.33
2019-05-22T08:58:39.854Z,22.23
2019-05-22T09:01:11.344Z,17.13
2019-05-22T09:03:41.392Z,16.90
2019-05-22T09:06:11.734Z,17.90
2019-05-22T09:08:41.526Z,19.00
2019-05-22T09:11:11.278Z,19.00
2019-05-22T09:13:40.846Z,18.90
2019-05-22T09:16:11.020Z,16.20
2019-05-22T09:18:40.325Z,17.07
2019-05-22T09:21:10.125Z,15.60
2019-05-22T09:23:40.861Z,15.77
2019-05-22T09:26:10.877Z,15.07
2019-05-22T09:28:40.298Z,15.20
2019-05-22T09:31:09.654Z,15.10
2019-05-22T09:33:39.477Z,16.40
2019-05-22T09:36:10.635Z,15.23
2019-05-22T09:38:39.996Z,15.20
2019-05-22T09:41:09.449Z,13.53
2019-05-22T09:43:38.784Z,14.00
2019-05-22T09:46:09.259Z,13.97
2019-05-22T09:48:39.357Z,13.67
2019-05-22T09:51:08.801Z,12.10
2019-05-22T09:53:38.876Z,14.47
2019-05-22T09:56:08.807Z,11.97
2019-05-22T09:58:38.392Z,11.53
2019-05-22T10:01:11.968Z,10.13
2019-05-22T10:03:40.777Z,11.07
2019-05-22T10:06:11.531Z,11.37
2019-05-22T10:08:41.426Z,11.30
2019-05-22T10:11:11.240Z,11.43
2019-05-22T10:13:41.259Z,10.23
2019-05-22T10:16:10.538Z,9.73
2019-05-22T10:18:40.135Z,10.33
2019-05-22T10:21:10.267Z,11.60
2019-05-22T10:23:39.899Z,10.80
2019-05-22T10:26:09.418Z,9.63
2019-05-22T10:28:39.939Z,10.37
2019-05-22T10:31:10.901Z,10.53
2019-05-22T10:33:40.913Z,9.40
2019-05-22T10:36:10.649Z,11.30
2019-05-22T10:38:40.081Z,11.00
2019-05-22T10:41:10.236Z,10.90
2019-05-22T10:43:41.689Z,9.83
2019-05-22T10:46:12.009Z,12.23
2019-05-22T10:48:41.605Z,9.63
2019-05-22T10:51:11.676Z,10.77
2019-05-22T10:53:41.086Z,11.93
2019-05-22T10:56:11.427Z,11.23
2019-05-22T10:58:41.027Z,10.73
2019-05-22T11:01:10.618Z,11.30
2019-05-22T11:03:40.031Z,9.77
2019-05-22T11:06:09.893Z,9.50
2019-05-22T11:08:40.132Z,9.23
2019-05-22T11:11:10.268Z,9.83
2019-05-22T11:13:40.610Z,11.63
2019-05-22T11:16:10.227Z,9.57
2019-05-22T11:18:39.908Z,9.77
2019-05-22T11:21:09.429Z,10.20
2019-05-22T11:23:51.517Z,8.73
2019-05-22T11:26:10.122Z,8.23
2019-05-22T11:28:40.357Z,8.57
2019-05-22T11:31:10.992Z,10.17
2019-05-22T11:33:41.102Z,10.13
2019-05-22T11:36:11.837Z,8.53
2019-05-22T11:38:41.493Z,8.90
2019-05-22T11:41:11.665Z,6.87
2019-05-22T11:43:40.958Z,7.00
2019-05-22T11:46:10.367Z,7.57
2019-05-22T11:48:39.969Z,6.90
2019-05-22T11:51:09.682Z,6.80
2019-05-22T11:53:39.295Z,9.07
2019-05-22T11:56:08.841Z,9.70
2019-05-22T11:58:38.352Z,10.10
2019-05-22T12:01:09.647Z,9.83
2019-05-22T12:03:39.974Z,9.40
2019-05-22T12:06:10.096Z,9.90
2019-05-22T12:08:40.636Z,11.17
2019-05-22T12:11:12.851Z,10.73
2019-05-22T12:13:43.079Z,9.63
2019-05-22T12:16:13.228Z,8.33
2019-05-22T12:18:42.590Z,6.00
2019-05-22T12:21:12.478Z,7.73
2019-05-22T12:23:42.059Z,8.93
2019-05-22T12:26:12.274Z,6.60
2019-05-22T12:28:41.995Z,7.70
2019-05-22T12:31:12.262Z,6.50
2019-05-22T12:33:41.505Z,6.97
2019-05-22T12:36:12.395Z,6.90
2019-05-22T12:38:42.339Z,7.57
2019-05-22T12:41:13.417Z,6.70
2019-05-22T12:43:45.039Z,5.87
2019-05-22T12:46:14.564Z,5.87
2019-05-22T12:48:43.847Z,5.63
2019-05-22T12:51:13.182Z,6.17
2019-05-22T12:53:42.637Z,6.87
2019-05-22T12:56:12.378Z,7.13
2019-05-22T12:58:42.734Z,7.37
2019-05-22T13:01:12.850Z,8.00
2019-05-22T13:03:42.766Z,6.80
2019-05-22T13:06:13.256Z,6.27
2019-05-22T13:08:43.953Z,7.90
2019-05-22T13:11:14.642Z,6.60
2019-05-22T13:13:44.088Z,5.90
2019-05-22T13:16:14.547Z,6.00
2019-05-22T13:18:44.995Z,6.77
2019-05-22T13:21:18.450Z,6.37
2019-05-22T13:23:49.467Z,7.10
2019-05-22T13:26:19.554Z,6.50
2019-05-22T13:28:49.271Z,6.90
2019-05-22T13:31:20.008Z,4.93
2019-05-22T13:33:50.467Z,6.67
2019-05-22T13:36:20.241Z,7.60
2019-05-22T13:38:49.788Z,6.70
2019-05-22T13:41:19.804Z,5.00
2019-05-22T13:43:50.500Z,6.73
2019-05-22T13:46:19.955Z,6.13
2019-05-22T13:48:49.718Z,5.23
2019-05-22T13:51:19.358Z,6.10
2019-05-22T13:53:50.116Z,5.93
2019-05-22T13:56:19.761Z,5.10
2019-05-22T13:58:49.816Z,5.93
2019-05-22T14:01:21.022Z,5.07
2019-05-22T14:03:50.859Z,5.80
2019-05-22T14:06:21.023Z,5.60
2019-05-22T14:08:50.649Z,5.77
2019-05-22T14:11:20.612Z,5.67
2019-05-22T14:13:50.031Z,4.50
2019-05-22T14:16:20.822Z,5.07
2019-05-22T14:18:50.586Z,4.20
2019-05-22T14:21:20.632Z,4.90
2019-05-22T14:23:53.898Z,5.00
2019-05-22T14:26:23.345Z,4.10
2019-05-22T14:28:53.047Z,4.40
2019-05-22T14:31:22.463Z,4.57
2019-05-22T14:33:52.224Z,3.73
2019-05-22T14:36:21.938Z,3.03
2019-05-22T14:38:53.184Z,3.30
2019-05-22T14:41:22.690Z,4.07
2019-05-22T14:43:54.064Z,4.13
2019-05-22T14:46:23.501Z,2.93
2019-05-22T14:48:53.521Z,3.57
2019-05-22T14:51:24.411Z,3.40
2019-05-22T14:53:56.412Z,3.83
2019-05-22T14:56:26.427Z,3.50
2019-05-22T14:58:56.148Z,4.63
2019-05-22T15:01:26.776Z,4.90
2019-05-22T15:03:56.489Z,4.93
2019-05-22T15:06:26.230Z,4.20
2019-05-22T15:08:58.659Z,4.27
2019-05-22T15:11:28.965Z,4.07
2019-05-22T15:13:58.276Z,4.73
2019-05-22T15:16:28.218Z,4.43
2019-05-22T15:18:58.055Z,3.87
2019-05-22T15:21:28.199Z,4.20
2019-05-22T15:24:01.115Z,3.47
2019-05-22T15:26:31.297Z,2.60
2019-05-22T15:29:00.882Z,3.63
2019-05-22T15:31:30.891Z,3.30
2019-05-22T15:34:02.127Z,3.80
2019-05-22T15:36:31.732Z,3.93
2019-05-22T15:39:01.975Z,3.70
2019-05-22T15:41:32.589Z,3.43
2019-05-22T15:44:01.935Z,3.47
2019-05-22T15:46:32.816Z,3.90
2019-05-22T15:49:05.564Z,3.67
2019-05-22T15:51:36.936Z,3.73
2019-05-22T15:54:07.166Z,3.33
2019-05-22T15:56:40.455Z,3.80
2019-05-22T15:59:14.067Z,3.87
2019-05-22T16:01:43.771Z,3.50
2019-05-22T16:04:15.218Z,3.77
2019-05-22T16:06:45.136Z,4.03
2019-05-22T16:09:16.246Z,4.27
2019-05-22T16:11:48.295Z,6.20
2019-05-22T16:14:19.443Z,4.60
2019-05-22T16:16:50.231Z,3.83
2019-05-22T16:19:22.391Z,3.40
2019-05-22T16:21:54.049Z,2.90
2019-05-22T16:24:23.794Z,2.80
2019-05-22T16:26:54.105Z,3.73
2019-05-22T16:29:25.491Z,3.07
2019-05-22T16:31:56.896Z,3.20
2019-05-22T16:34:28.521Z,3.77
2019-05-22T16:36:58.400Z,3.43
2019-05-22T16:39:27.917Z,3.87
2019-05-22T16:41:57.560Z,3.47
2019-05-22T16:44:27.938Z,4.07
2019-05-22T16:46:59.135Z,3.77
2019-05-22T16:49:30.023Z,3.40
2019-05-22T16:52:02.636Z,2.53
2019-05-22T16:54:33.690Z,2.80
2019-05-22T16:57:03.925Z,3.83
2019-05-22T16:59:36.925Z,3.07
2019-05-22T17:02:08.361Z,3.10
2019-05-22T17:04:37.955Z,3.80
2019-05-22T17:07:08.340Z,2.63
2019-05-22T17:09:40.815Z,3.53
2019-05-22T17:12:11.333Z,3.10
2019-05-22T17:14:41.816Z,3.50
2019-05-22T17:17:12.327Z,3.63
2019-05-22T17:19:41.669Z,3.17
2019-05-22T17:22:11.350Z,3.50
2019-05-22T17:24:40.869Z,3.00
2019-05-22T17:27:11.854Z,3.47
2019-05-22T17:29:41.306Z,3.90
2019-05-22T17:32:12.587Z,3.60
2019-05-22T17:34:46.980Z,4.17
2019-05-22T17:37:17.942Z,3.40
2019-05-22T17:39:49.588Z,4.37
2019-05-22T17:42:21.837Z,4.23
2019-05-22T17:44:51.803Z,3.20
2019-05-22T17:47:23.948Z,3.70
2019-05-22T17:49:54.871Z,3.73
2019-05-22T17:52:26.200Z,3.27
2019-05-22T17:54:56.868Z,3.77
2019-05-22T17:57:26.770Z,4.10
2019-05-22T17:59:57.081Z,3.90
2019-05-22T18:02:28.228Z,3.60
2019-05-22T18:04:57.574Z,3.87
2019-05-22T18:07:27.137Z,4.07
2019-05-22T18:09:56.390Z,3.97
2019-05-22T18:12:26.974Z,4.57
2019-05-22T18:14:56.672Z,4.10
2019-05-22T18:17:26.528Z,3.87
2019-05-22T18:19:56.405Z,4.23
2019-05-22T18:22:26.456Z,4.47
2019-05-22T18:24:56.344Z,4.23
2019-05-22T18:27:26.556Z,4.13
2019-05-22T18:29:57.640Z,4.17
2019-05-22T18:32:26.916Z,5.23
2019-05-22T18:34:56.264Z,4.10
2019-05-22T18:37:25.541Z,4.83
2019-05-22T18:39:54.881Z,4.33
2019-05-22T18:42:24.501Z,5.07
2019-05-22T18:44:53.786Z,4.30
2019-05-22T18:47:23.698Z,4.77
2019-05-22T18:49:53.346Z,4.17
2019-05-22T18:52:38.269Z,4.40
2019-05-22T18:54:54.087Z,5.30
2019-05-22T18:57:23.437Z,6.70
2019-05-22T18:59:59.924Z,5.20
2019-05-22T19:02:24.246Z,4.67
2019-05-22T19:04:53.521Z,6.20
2019-05-22T19:07:22.864Z,5.20
2019-05-22T19:09:52.210Z,5.20
2019-05-22T19:12:22.124Z,7.47
2019-05-22T19:14:52.050Z,7.17
2019-05-22T19:17:21.318Z,5.47
2019-05-22T19:19:50.934Z,6.00
2019-05-22T19:22:20.205Z,6.93
2019-05-22T19:24:49.603Z,5.30
2019-05-22T19:27:18.900Z,6.87
2019-05-22T19:29:48.168Z,6.30
2019-05-22T19:32:18.877Z,6.80
2019-05-22T19:34:48.199Z,5.87
2019-05-22T19:37:18.067Z,6.60
2019-05-22T19:39:47.992Z,7.80
2019-05-22T19:42:17.556Z,6.90
2019-05-22T19:44:46.830Z,7.43
2019-05-22T19:47:16.378Z,9.00
2019-05-22T19:49:46.391Z,9.60
2019-05-22T19:52:15.786Z,9.63
2019-05-22T19:54:45.594Z,9.40
2019-05-22T19:57:15.199Z,9.73
2019-05-22T19:59:45.008Z,8.00
2019-05-22T20:02:15.034Z,10.90
2019-05-22T20:04:44.965Z,10.70
2019-05-22T20:07:14.549Z,11.50
2019-05-22T20:09:44.877Z,9.70
2019-05-22T20:12:14.996Z,10.67
2019-05-22T20:14:44.711Z,12.37
2019-05-22T20:17:14.250Z,13.00
2019-05-22T20:19:44.106Z,13.53
2019-05-22T20:22:14.348Z,15.30
2019-05-22T20:24:43.622Z,12.67
2019-05-22T20:27:13.149Z,12.10
2019-05-22T20:29:42.947Z,11.20
2019-05-22T20:32:14.319Z,14.73
2019-05-22T20:34:45.094Z,12.07
2019-05-22T20:37:14.860Z,13.10
2019-05-22T20:39:44.637Z,11.30
2019-05-22T20:42:14.608Z,11.73
2019-05-22T20:44:43.835Z,13.00
2019-05-22T20:47:14.202Z,14.60
2019-05-22T20:49:47.296Z,11.63
2019-05-22T20:52:16.824Z,13.43
2019-05-22T20:54:47.236Z,13.23
2019-05-22T20:57:20.048Z,15.33
2019-05-22T20:59:48.717Z,14.83
2019-05-22T21:02:21.068Z,13.33
2019-05-22T21:04:51.388Z,13.50
2019-05-22T21:07:31.165Z,16.60
2019-05-22T21:10:01.411Z,18.00
2019-05-22T21:12:35.730Z,16.30
2019-05-22T21:15:05.547Z,12.60
2019-05-22T21:17:36.815Z,14.33
2019-05-22T21:20:10.785Z,17.73
2019-05-22T21:22:40.728Z,14.30
2019-05-22T21:25:12.015Z,12.40
2019-05-22T21:27:42.677Z,11.87
2019-05-22T21:30:14.029Z,13.83
2019-05-22T21:32:45.290Z,15.00
2019-05-22T21:35:16.990Z,18.57
2019-05-22T21:37:46.431Z,13.30
2019-05-22T21:40:18.365Z,12.40
2019-05-22T21:42:48.367Z,13.53
2019-05-22T21:45:18.047Z,15.20
2019-05-22T21:47:47.410Z,12.50
2019-05-22T21:50:19.268Z,15.43
2019-05-22T21:52:48.620Z,14.43
2019-05-22T21:55:19.545Z,14.90
2019-05-22T21:57:49.168Z,12.67
2019-05-22T22:00:43.288Z,14.80
2019-05-22T22:03:23.804Z,16.33
2019-05-22T22:05:54.509Z,12.70
2019-05-22T22:08:23.796Z,13.53
2019-05-22T22:10:53.249Z,17.30
2019-05-22T22:13:22.813Z,14.83
2019-05-22T22:15:52.469Z,13.20
2019-05-22T22:18:24.696Z,12.27
2019-05-22T22:20:54.222Z,17.27
2019-05-22T22:23:23.677Z,14.23
2019-05-22T22:25:53.431Z,14.43
2019-05-22T22:28:25.233Z,15.20
2019-05-22T22:31:04.609Z,16.27
2019-05-22T22:33:35.740Z,13.73
2019-05-22T22:36:06.230Z,15.37
2019-05-22T22:38:36.420Z,13.93
2019-05-22T22:41:07.213Z,17.63
2019-05-22T22:43:39.645Z,14.30
2019-05-22T22:46:23.545Z,14.97
2019-05-22T22:48:55.803Z,17.70
2019-05-22T22:51:26.041Z,15.17
2019-05-22T22:53:57.453Z,17.23
2019-05-22T22:56:28.432Z,15.17
2019-05-22T22:58:58.191Z,18.47
2019-05-22T23:01:30.790Z,16.93
2019-05-22T23:04:03.662Z,15.57
2019-05-22T23:06:36.084Z,18.20
2019-05-22T23:09:05.311Z,20.00
2019-05-22T23:11:37.711Z,18.73
2019-05-22T23:14:07.904Z,17.70
2019-05-22T23:16:38.492Z,21.47
2019-05-22T23:19:17.047Z,19.10
2019-05-22T23:21:46.710Z,20.80
2019-05-22T23:24:16.530Z,18.67
2019-05-22T23:26:46.086Z,16.63
2019-05-22T23:29:15.712Z,16.47
2019-05-22T23:31:45.361Z,14.43
2019-05-22T23:34:14.774Z,17.13
2019-05-22T23:36:45.270Z,16.73
2019-05-22T23:39:15.605Z,20.50
2019-05-22T23:41:46.954Z,19.70
2019-05-22T23:44:19.400Z,19.27
2019-05-22T23:46:50.024Z,18.17
2019-05-22T23:49:19.385Z,16.53
2019-05-22T23:51:48.738Z,15.33
2019-05-22T23:54:18.393Z,17.50
2019-05-22T23:56:49.751Z,18.00
2019-05-22T23:59:19.543Z,15.83
